Time;durP1;ratioP1;P1;durP2;ratioP2;P2;SDS_P1;SDS_P2;PMS_P1;PMS_P2;Temp;Humidity;BMP_temperature;BMP_pressure;BME280_temperature;BME280_humidity;BME280_pressure;Samples;Min_cycle;Max_cycle;Signal;HPM_P1;HPM_P2
2022/01/25 00:09:48;;;;;;;64.80;48.07;;;8.00;93.50;;;;;;5114812;27;20418;-73
2022/01/25 00:25:57;;;;;;;66.30;47.63;;;7.90;93.10;;;;;;5108373;27;20413;-72
2022/01/25 00:28:42;;;;;;;;;;;;;;;;;;;;;
2022/01/25 00:31:36;;;;;;;66.23;46.70;;;7.90;93.30;;;;;;5108513;27;20916;-71
2022/01/25 00:33:49;;;;;;;65.28;46.15;;;7.90;93.70;;;;;;5105735;27;20429;-72
2022/01/25 00:36:23;;;;;;;68.25;47.38;;;7.90;93.40;;;;;;5110496;27;20761;-72
2022/01/25 00:38:51;;;;;;;63.75;46.13;;;7.90;93.40;;;;;;5117466;27;20406;-72
2022/01/25 00:41:18;;;;;;;67.90;48.17;;;7.90;93.40;;;;;;5113128;27;20415;-74
2022/01/25 00:43:45;;;;;;;70.37;47.47;;;7.90;93.20;;;;;;5110550;27;20745;-72
2022/01/25 00:46:12;;;;;;;67.00;47.38;;;7.80;93.20;;;;;;5107817;27;20412;-72
2022/01/25 00:56:27;;;;;;;69.00;48.95;;;7.80;93.00;;;;;;5111414;27;20502;-71
2022/01/25 00:58:53;;;;;;;63.92;47.08;;;7.80;92.80;;;;;;5106895;28;20430;-71
2022/01/25 01:01:20;;;;;;;67.93;48.17;;;7.80;92.90;;;;;;5109035;27;20412;-71
2022/01/25 01:03:46;;;;;;;69.33;49.57;;;7.80;92.90;;;;;;5110692;27;20419;-71
2022/01/25 01:06:12;;;;;;;69.32;48.38;;;7.80;93.00;;;;;;5107788;28;20843;-71
2022/01/25 01:08:38;;;;;;;69.88;47.97;;;7.80;93.00;;;;;;5112635;27;20436;-72
2022/01/25 01:11:07;;;;;;;69.40;47.57;;;7.70;92.90;;;;;;5109746;27;20416;-72
2022/01/25 01:30:07;;;;;;;71.55;49.55;;;7.80;93.00;;;;;;5108375;28;20456;-74
2022/01/25 01:38:00;;;;;;;74.18;50.65;;;7.80;92.80;;;;;;5106918;27;20816;-74
2022/01/25 01:48:27;;;;;;;76.78;52.15;;;7.80;93.00;;;;;;5110867;27;20427;-74
2022/01/25 01:50:55;;;;;;;78.47;52.67;;;7.80;93.10;;;;;;5109589;27;20418;-74
2022/01/25 01:53:21;;;;;;;76.15;52.08;;;7.80;93.10;;;;;;5111350;27;20400;-74
2022/01/25 01:55:46;;;;;;;77.20;51.67;;;7.80;93.20;;;;;;5118788;27;20424;-72
2022/01/25 01:58:13;;;;;;;76.88;52.10;;;7.80;93.40;;;;;;5109691;27;20427;-74
2022/01/25 02:00:45;;;;;;;77.38;52.13;;;7.80;93.20;;;;;;5110262;27;20489;-73
2022/01/25 02:03:10;;;;;;;77.75;51.70;;;7.80;93.00;;;;;;5111626;27;20484;-73
2022/01/25 02:05:37;;;;;;;76.17;51.53;;;7.80;93.30;;;;;;5108480;27;20412;-72
2022/01/25 02:08:03;;;;;;;73.70;50.17;;;7.80;93.30;;;;;;5105538;27;20798;-74
2022/01/25 02:10:29;;;;;;;77.93;51.63;;;7.80;93.10;;;;;;5106845;28;20891;-75
2022/01/25 02:12:56;;;;;;;78.70;52.85;;;7.70;92.90;;;;;;5110969;27;20838;-74
2022/01/25 02:15:22;;;;;;;76.28;51.63;;;7.70;93.20;;;;;;5117056;27;20418;-74
2022/01/25 02:22:23;;;;;;;74.32;51.22;;;7.70;93.10;;;;;;5105427;27;20464;-73
2022/01/25 02:23:26;;;;;;;73.95;50.67;;;7.70;93.20;;;;;;5101834;27;20402;-73
2022/01/25 02:25:54;;;;;;;74.50;51.20;;;7.70;93.10;;;;;;5108188;28;20473;-73
2022/01/25 02:28:22;;;;;;;77.20;51.70;;;7.70;93.00;;;;;;5107172;27;20412;-73
2022/01/25 02:30:48;;;;;;;78.22;52.67;;;7.70;93.10;;;;;;5115833;28;20398;-74
2022/01/25 02:33:14;;;;;;;79.55;52.15;;;7.60;93.00;;;;;;5107673;27;20408;-73
2022/01/25 02:35:40;;;;;;;77.85;52.00;;;7.60;93.50;;;;;;5107551;28;20903;-73
2022/01/25 02:38:06;;;;;;;81.13;53.83;;;7.60;93.50;;;;;;5093815;28;20410;-73
2022/01/25 02:40:33;;;;;;;77.75;51.80;;;7.70;93.50;;;;;;5106610;28;20410;-72
2022/01/25 02:42:59;;;;;;;80.00;53.53;;;7.70;93.70;;;;;;5107435;28;20407;-73
2022/01/25 02:45:31;;;;;;;78.72;52.53;;;7.70;93.50;;;;;;5089616;28;20404;-73
2022/01/25 02:50:43;;;;;;;79.55;53.83;;;7.60;93.40;;;;;;5105076;28;20958;-72
2022/01/25 02:53:09;;;;;;;79.13;53.58;;;7.70;93.50;;;;;;5110739;28;20419;-72
2022/01/25 02:55:35;;;;;;;81.57;54.67;;;7.70;93.30;;;;;;5112943;27;20424;-72
2022/01/25 02:58:00;;;;;;;81.57;54.13;;;7.70;93.40;;;;;;5111090;28;20526;-72
2022/01/25 03:00:26;;;;;;;83.72;55.00;;;7.70;93.60;;;;;;5146137;27;20407;-72
2022/01/25 03:02:52;;;;;;;79.00;52.40;;;7.70;93.70;;;;;;5116631;27;20909;-71
2022/01/25 03:05:17;;;;;;;79.97;52.05;;;7.70;93.90;;;;;;5123696;27;20899;-72
2022/01/25 03:07:44;;;;;;;81.07;53.23;;;7.70;93.60;;;;;;5120648;27;20844;-73
2022/01/25 03:10:11;;;;;;;76.78;51.60;;;7.70;93.60;;;;;;5149517;27;20471;-73
2022/01/25 03:12:48;;;;;;;79.50;52.78;;;7.70;93.40;;;;;;5096518;27;20399;-73
2022/01/25 03:17:56;;;;;;;81.60;54.10;;;7.60;93.60;;;;;;5113688;27;20946;-72
2022/01/25 03:20:35;;;;;;;76.45;51.22;;;7.60;93.80;;;;;;5116075;27;20395;-75
2022/01/25 03:23:06;;;;;;;77.05;51.95;;;7.70;93.70;;;;;;5110634;28;20903;-73
2022/01/25 03:25:32;;;;;;;82.38;54.67;;;7.70;93.60;;;;;;5114325;27;20400;-73
2022/01/25 03:27:58;;;;;;;81.38;54.08;;;7.70;93.60;;;;;;5106783;28;20419;-74
2022/01/25 03:30:25;;;;;;;80.22;53.28;;;7.60;93.80;;;;;;5109839;27;20426;-73
2022/01/25 03:32:51;;;;;;;81.68;54.35;;;7.60;94.00;;;;;;5110423;28;20502;-74
2022/01/25 03:35:17;;;;;;;82.30;53.72;;;7.60;93.90;;;;;;5120977;27;20427;-72
2022/01/25 03:37:42;;;;;;;75.57;51.80;;;7.70;94.40;;;;;;5096776;28;20714;-72
2022/01/25 03:40:09;;;;;;;77.38;52.40;;;7.60;93.90;;;;;;5111986;28;20436;-71
2022/01/25 03:42:38;;;;;;;76.90;52.00;;;7.60;93.80;;;;;;5108088;27;20414;-71
2022/01/25 03:45:08;;;;;;;74.18;51.20;;;7.60;93.90;;;;;;5110359;27;20400;-72
2022/01/25 03:47:57;;;;;;;74.57;50.63;;;7.60;93.80;;;;;;5112710;27;20414;-71
2022/01/25 03:50:23;;;;;;;74.80;52.43;;;7.60;94.00;;;;;;5119612;27;20694;-72
2022/01/25 03:52:48;;;;;;;78.82;53.50;;;7.50;94.00;;;;;;5126209;27;20479;-72
2022/01/25 03:55:14;;;;;;;76.85;52.88;;;7.60;94.10;;;;;;5147672;27;20520;-72
2022/01/25 03:57:39;;;;;;;78.20;53.17;;;7.50;94.20;;;;;;5107356;27;20420;-72
2022/01/25 04:00:07;;;;;;;75.93;52.73;;;7.60;94.10;;;;;;5116315;27;20422;-72
2022/01/25 04:02:45;;;;;;;77.97;53.78;;;7.50;94.00;;;;;;5107566;28;20538;-72
2022/01/25 04:05:19;;;;;;;74.65;51.95;;;7.50;94.00;;;;;;5109676;28;20420;-71
2022/01/25 04:07:50;;;;;;;74.28;52.08;;;7.50;94.10;;;;;;5109739;27;20419;-71
2022/01/25 04:10:17;;;;;;;75.65;53.00;;;7.50;94.20;;;;;;5111054;28;21073;-71
2022/01/25 04:12:44;;;;;;;77.23;52.60;;;7.50;94.30;;;;;;5109931;28;20454;-72
2022/01/25 04:15:10;;;;;;;75.35;51.80;;;7.60;94.40;;;;;;5110466;27;20915;-71
2022/01/25 04:17:36;;;;;;;73.22;51.53;;;7.50;94.40;;;;;;5110736;27;20412;-71
2022/01/25 04:20:17;;;;;;;72.00;51.10;;;7.50;94.40;;;;;;5110349;28;20404;-70
2022/01/25 04:25:27;;;;;;;69.05;48.20;;;7.50;94.10;;;;;;5107547;27;20492;-73
2022/01/25 04:27:53;;;;;;;66.67;47.57;;;7.50;94.10;;;;;;5114735;27;20414;-73
2022/01/25 04:30:19;;;;;;;58.22;43.38;;;7.50;93.80;;;;;;5103983;28;20403;-73
2022/01/25 04:32:59;;;;;;;59.78;44.38;;;7.40;93.30;;;;;;5108627;27;20436;-71
2022/01/25 04:51:40;;;;;;;59.08;44.17;;;7.20;93.10;;;;;;5110959;27;20768;-71
2022/01/25 04:59:33;;;;;;;62.30;45.45;;;7.20;93.60;;;;;;5107528;28;20408;-72
2022/01/25 05:02:07;;;;;;;62.53;45.78;;;7.20;93.70;;;;;;5107184;28;20950;-72
2022/01/25 05:04:39;;;;;;;62.70;45.93;;;7.20;93.60;;;;;;5108008;27;20895;-72
2022/01/25 05:07:18;;;;;;;62.28;45.78;;;7.30;93.50;;;;;;5111100;27;20446;-71
2022/01/25 05:09:45;;;;;;;56.80;43.20;;;7.30;93.40;;;;;;5116631;27;20400;-71
2022/01/25 05:12:12;;;;;;;58.30;43.42;;;7.30;93.50;;;;;;5107934;27;20498;-72
2022/01/25 05:14:54;;;;;;;65.10;46.50;;;7.30;93.20;;;;;;5108977;27;20530;-71
2022/01/25 05:17:29;;;;;;;64.13;46.08;;;7.30;93.30;;;;;;5109708;27;20914;-72
2022/01/25 05:24:49;;;;;;;61.42;45.10;;;7.30;93.50;;;;;;5108245;28;20428;-73
2022/01/25 05:27:17;;;;;;;61.75;45.13;;;7.30;93.50;;;;;;5110447;27;20409;-72
2022/01/25 05:29:43;;;;;;;61.50;45.38;;;7.30;93.30;;;;;;5093857;28;20423;-71
2022/01/25 05:32:09;;;;;;;60.90;44.20;;;7.30;93.40;;;;;;5107230;27;20427;-74
2022/01/25 05:34:35;;;;;;;63.90;45.67;;;7.30;93.40;;;;;;5104325;28;20896;-72
2022/01/25 05:37:03;;;;;;;60.63;44.55;;;7.30;93.30;;;;;;5105266;27;20447;-71
2022/01/25 05:39:32;;;;;;;62.60;45.85;;;7.20;93.20;;;;;;5106822;27;20468;-72
2022/01/25 05:42:14;;;;;;;61.55;45.03;;;7.20;93.10;;;;;;5103946;27;20400;-71
2022/01/25 05:47:27;;;;;;;60.17;45.25;;;7.30;93.30;;;;;;5105133;27;20396;-71
2022/01/25 05:49:53;;;;;;;60.83;45.10;;;7.20;93.10;;;;;;5094447;28;20407;-71
2022/01/25 05:52:19;;;;;;;60.10;43.43;;;7.20;93.30;;;;;;5106031;28;20404;-73
2022/01/25 05:54:44;;;;;;;61.47;45.60;;;7.20;93.60;;;;;;5107942;28;20406;-73
2022/01/25 05:57:11;;;;;;;64.40;46.63;;;7.20;93.50;;;;;;5104764;27;20400;-73
2022/01/25 05:59:37;;;;;;;66.30;47.83;;;7.30;93.60;;;;;;5115543;27;20423;-71
2022/01/25 06:02:04;;;;;;;67.63;48.80;;;7.20;93.60;;;;;;5139587;27;20931;-72
2022/01/25 06:04:30;;;;;;;66.40;47.55;;;7.30;93.70;;;;;;5110743;27;20406;-70
2022/01/25 06:06:55;;;;;;;66.83;47.73;;;7.30;93.80;;;;;;5103704;28;21091;-70
2022/01/25 06:09:24;;;;;;;71.25;47.95;;;7.30;94.00;;;;;;5139478;27;20853;-70
2022/01/25 06:11:51;;;;;;;63.30;46.50;;;7.30;93.80;;;;;;5101500;28;20423;-70
2022/01/25 06:14:16;;;;;;;65.38;47.78;;;7.30;93.50;;;;;;5106619;28;20521;-70
2022/01/25 06:16:42;;;;;;;63.27;45.57;;;7.30;93.60;;;;;;5103933;28;20487;-71
2022/01/25 06:19:08;;;;;;;57.80;43.63;;;7.30;93.80;;;;;;5102503;28;20431;-72
2022/01/25 06:21:33;;;;;;;60.90;45.00;;;7.30;93.30;;;;;;5108717;27;20405;-71
2022/01/25 06:23:59;;;;;;;69.63;48.13;;;7.30;93.30;;;;;;5138974;27;20457;-71
2022/01/25 06:26:25;;;;;;;71.10;48.17;;;7.20;93.20;;;;;;5086336;28;20452;-70
2022/01/25 06:28:50;;;;;;;61.90;45.15;;;7.20;93.50;;;;;;5109700;27;20398;-71
2022/01/25 06:31:17;;;;;;;67.20;46.83;;;7.20;93.60;;;;;;5106965;27;20418;-70
2022/01/25 06:33:44;;;;;;;64.05;46.45;;;7.20;93.70;;;;;;5109155;27;20416;-71
2022/01/25 06:36:12;;;;;;;67.28;48.55;;;7.20;93.40;;;;;;5104088;28;21181;-72
2022/01/25 06:38:38;;;;;;;70.05;49.60;;;7.20;93.60;;;;;;5138573;27;20824;-71
2022/01/25 06:41:04;;;;;;;64.63;47.10;;;7.30;94.00;;;;;;5105454;27;20483;-71
2022/01/25 06:43:30;;;;;;;64.80;45.85;;;7.30;93.80;;;;;;5106062;28;20496;-70
2022/01/25 06:46:00;;;;;;;64.75;46.92;;;7.30;93.80;;;;;;5115487;28;20423;-70
2022/01/25 06:48:26;;;;;;;65.45;47.42;;;7.30;93.70;;;;;;5103995;28;20466;-70
2022/01/25 06:50:52;;;;;;;67.97;47.33;;;7.30;93.90;;;;;;5103388;28;20424;-69
2022/01/25 06:53:18;;;;;;;61.83;44.63;;;7.30;93.90;;;;;;5104284;28;20408;-71
2022/01/25 06:55:43;;;;;;;62.28;46.47;;;7.30;94.00;;;;;;5104194;28;20467;-71
2022/01/25 06:58:09;;;;;;;63.97;46.97;;;7.40;93.80;;;;;;5102241;28;20966;-71
2022/01/25 07:00:35;;;;;;;66.00;47.72;;;7.30;93.70;;;;;;5106439;28;20415;-69
2022/01/25 07:03:01;;;;;;;63.72;47.13;;;7.40;93.70;;;;;;5103808;28;20776;-72
2022/01/25 07:05:27;;;;;;;66.07;47.23;;;7.40;93.50;;;;;;5104532;28;20500;-71
2022/01/25 07:07:54;;;;;;;67.53;48.63;;;7.30;93.30;;;;;;5104335;28;20468;-72
2022/01/25 07:10:20;;;;;;;63.53;45.90;;;7.30;93.60;;;;;;5105539;28;20406;-74
2022/01/25 07:12:45;;;;;;;63.75;45.92;;;7.30;93.80;;;;;;5104077;28;20411;-73
2022/01/25 07:15:12;;;;;;;62.63;45.13;;;7.30;93.90;;;;;;5106659;28;20521;-74
2022/01/25 07:17:39;;;;;;;58.97;43.60;;;7.30;93.70;;;;;;5103738;28;20468;-74
2022/01/25 07:20:06;;;;;;;65.32;46.83;;;7.30;93.00;;;;;;5103195;28;20456;-70
2022/01/25 07:22:33;;;;;;;69.35;46.63;;;7.30;93.20;;;;;;5104695;28;20439;-73
2022/01/25 07:24:59;;;;;;;72.88;48.50;;;7.30;93.20;;;;;;5086032;28;20408;-71
2022/01/25 07:27:24;;;;;;;63.17;46.22;;;7.30;93.40;;;;;;5100008;28;20407;-71
2022/01/25 07:29:50;;;;;;;67.70;45.93;;;7.20;93.30;;;;;;5109368;28;20517;-75
2022/01/25 07:32:16;;;;;;;64.30;46.13;;;7.30;93.50;;;;;;5104136;28;20408;-72
2022/01/25 07:34:42;;;;;;;68.43;47.40;;;7.20;93.40;;;;;;5106873;28;20423;-72
2022/01/25 07:37:07;;;;;;;69.38;48.00;;;7.20;93.40;;;;;;5105558;27;20411;-73
2022/01/25 07:39:33;;;;;;;65.57;46.07;;;7.20;93.50;;;;;;5109375;27;20410;-72
2022/01/25 07:41:59;;;;;;;64.93;47.30;;;7.20;93.50;;;;;;5109246;27;20515;-72
2022/01/25 07:44:36;;;;;;;66.13;47.60;;;7.20;93.60;;;;;;5108627;28;20457;-71
2022/01/25 07:47:03;;;;;;;68.63;49.15;;;7.20;93.80;;;;;;5107959;27;20512;-71
2022/01/25 07:49:30;;;;;;;70.70;48.10;;;7.20;93.90;;;;;;5127409;27;20484;-72
2022/01/25 07:51:56;;;;;;;69.43;48.70;;;7.30;94.00;;;;;;5110580;27;20410;-71
2022/01/25 07:54:22;;;;;;;74.63;50.08;;;7.30;93.70;;;;;;5110590;27;20505;-69
2022/01/25 07:56:48;;;;;;;67.35;47.90;;;7.30;93.90;;;;;;5111981;27;20410;-72
2022/01/25 07:59:14;;;;;;;70.17;49.50;;;7.30;93.80;;;;;;5108756;27;20532;-70
2022/01/25 08:01:41;;;;;;;69.72;48.30;;;7.30;93.90;;;;;;5103401;27;20752;-70
2022/01/25 08:04:08;;;;;;;69.22;48.53;;;7.30;93.90;;;;;;5109135;28;20491;-71
2022/01/25 08:06:34;;;;;;;70.05;50.38;;;7.30;94.10;;;;;;5120920;27;20402;-70
2022/01/25 08:09:01;;;;;;;67.32;48.00;;;7.30;93.90;;;;;;5108432;27;20491;-71
2022/01/25 08:11:27;;;;;;;67.53;48.80;;;7.30;94.00;;;;;;5141946;27;20775;-72
2022/01/25 08:14:00;;;;;;;69.63;49.00;;;7.30;93.80;;;;;;5108561;28;20845;-72
2022/01/25 08:16:26;;;;;;;67.80;48.10;;;7.30;93.80;;;;;;5109452;27;20451;-72
2022/01/25 08:18:52;;;;;;;69.47;49.22;;;7.30;94.00;;;;;;5113038;27;20416;-72
2022/01/25 08:21:17;;;;;;;66.88;47.65;;;7.40;93.90;;;;;;5113171;27;20391;-73
2022/01/25 08:23:43;;;;;;;65.83;47.70;;;7.30;93.80;;;;;;5113890;27;20399;-73
2022/01/25 08:26:09;;;;;;;67.72;47.42;;;7.30;93.60;;;;;;5110219;27;20451;-72
2022/01/25 08:28:34;;;;;;;66.30;46.40;;;7.40;93.70;;;;;;5109684;27;20487;-72
2022/01/25 08:31:00;;;;;;;68.47;47.88;;;7.40;93.40;;;;;;5113813;27;20413;-72
2022/01/25 08:33:26;;;;;;;65.97;47.13;;;7.30;93.20;;;;;;5118354;27;21017;-74
2022/01/25 08:35:51;;;;;;;66.82;47.00;;;7.30;93.50;;;;;;5120023;27;20903;-72
2022/01/25 08:38:17;;;;;;;69.57;48.27;;;7.30;93.60;;;;;;5108349;28;20490;-72
2022/01/25 08:40:43;;;;;;;68.68;48.78;;;7.40;93.40;;;;;;5108978;28;20432;-72
2022/01/25 08:43:08;;;;;;;68.97;49.33;;;7.30;93.60;;;;;;5111953;27;20410;-71
2022/01/25 08:45:34;;;;;;;65.78;47.78;;;7.40;93.90;;;;;;5124369;27;20408;-72
2022/01/25 08:47:59;;;;;;;65.17;46.13;;;7.40;93.80;;;;;;5112810;27;20420;-72
2022/01/25 08:50:25;;;;;;;64.18;45.53;;;7.40;93.30;;;;;;5107413;28;20426;-72
2022/01/25 08:52:51;;;;;;;63.20;45.15;;;7.30;93.00;;;;;;5113825;27;20458;-71
2022/01/25 08:55:17;;;;;;;68.03;48.08;;;7.20;93.00;;;;;;5115664;27;20414;-70
2022/01/25 08:57:42;;;;;;;66.33;46.63;;;7.20;93.20;;;;;;5113857;27;20390;-71
2022/01/25 09:00:11;;;;;;;68.93;48.13;;;7.10;93.30;;;;;;5118876;27;20392;-71
2022/01/25 09:02:37;;;;;;;68.90;49.35;;;7.10;93.30;;;;;;5108485;27;20404;-71
2022/01/25 09:05:03;;;;;;;67.35;48.47;;;7.10;93.50;;;;;;5118861;27;20394;-71
2022/01/25 09:07:29;;;;;;;72.97;51.10;;;7.10;93.40;;;;;;5114642;27;20402;-68
2022/01/25 09:09:55;;;;;;;70.47;49.00;;;7.10;93.50;;;;;;5110490;27;20408;-70
2022/01/25 09:12:21;;;;;;;69.18;48.47;;;7.10;93.50;;;;;;5123651;27;20795;-70
2022/01/25 09:14:47;;;;;;;69.85;48.65;;;7.20;93.70;;;;;;5113076;27;20398;-71
2022/01/25 09:17:13;;;;;;;68.07;48.73;;;7.20;93.50;;;;;;5117534;27;20402;-69
2022/01/25 09:19:39;;;;;;;68.43;48.10;;;7.10;93.20;;;;;;5112734;27;20765;-70
2022/01/25 09:22:06;;;;;;;70.15;49.85;;;7.10;93.40;;;;;;5108603;27;20411;-70
2022/01/25 09:24:33;;;;;;;73.53;51.00;;;7.10;93.40;;;;;;5115453;27;20447;-72
2022/01/25 09:26:58;;;;;;;72.22;50.85;;;7.10;93.40;;;;;;5112342;27;20399;-70
2022/01/25 09:29:24;;;;;;;73.72;50.28;;;7.10;93.70;;;;;;5112954;27;20419;-70
2022/01/25 09:31:50;;;;;;;72.10;49.23;;;7.10;93.40;;;;;;5140958;27;20615;-71
2022/01/25 09:34:16;;;;;;;75.10;50.22;;;7.10;93.50;;;;;;5110815;27;20400;-72
2022/01/25 09:36:42;;;;;;;71.13;49.70;;;7.20;93.60;;;;;;5124467;27;20773;-73
2022/01/25 09:39:08;;;;;;;69.70;49.15;;;7.20;93.60;;;;;;5116431;27;20454;-71
2022/01/25 09:41:34;;;;;;;72.05;50.70;;;7.20;94.00;;;;;;5112095;27;20689;-72
2022/01/25 09:44:00;;;;;;;71.53;49.75;;;7.30;94.00;;;;;;5108088;27;20494;-70
2022/01/25 09:46:25;;;;;;;73.60;51.05;;;7.30;93.80;;;;;;5108208;27;20511;-71
2022/01/25 09:48:51;;;;;;;71.97;49.47;;;7.40;93.80;;;;;;5106976;27;20414;-72
2022/01/25 09:51:19;;;;;;;73.30;49.88;;;7.40;93.70;;;;;;5108846;27;20767;-72
2022/01/25 09:53:45;;;;;;;77.43;50.60;;;7.40;93.60;;;;;;5108228;27;20883;-72
2022/01/25 09:56:11;;;;;;;68.00;48.13;;;7.50;93.70;;;;;;5113007;27;20414;-72
2022/01/25 09:58:36;;;;;;;72.72;49.47;;;7.50;93.90;;;;;;5120007;27;20396;-72
2022/01/25 10:01:04;;;;;;;74.35;50.72;;;7.50;93.70;;;;;;5107514;28;20397;-72
2022/01/25 10:03:38;;;;;;;78.65;52.00;;;7.50;93.60;;;;;;5114102;27;20557;-73
2022/01/25 10:06:10;;;;;;;69.05;48.33;;;7.50;93.80;;;;;;5112076;27;20394;-73
2022/01/25 10:08:37;;;;;;;69.70;48.35;;;7.50;93.20;;;;;;5151724;27;20404;-72
2022/01/25 10:11:07;;;;;;;72.95;49.92;;;7.60;93.20;;;;;;5112447;27;20412;-74
2022/01/25 10:13:35;;;;;;;72.00;49.80;;;7.60;93.40;;;;;;5109072;27;20408;-74
2022/01/25 10:16:32;;;;;;;73.90;48.75;;;7.60;93.30;;;;;;5114835;27;20404;-72
2022/01/25 10:19:00;;;;;;;76.72;49.10;;;7.60;93.00;;;;;;5107921;27;20414;-72
2022/01/25 10:21:30;;;;;;;68.82;47.90;;;7.50;93.10;;;;;;5116101;27;20398;-72
2022/01/25 10:24:19;;;;;;;69.40;48.40;;;7.50;93.00;;;;;;5110924;27;20618;-71
2022/01/25 10:27:00;;;;;;;72.65;50.28;;;7.50;92.90;;;;;;5107397;27;20404;-70
2022/01/25 10:29:34;;;;;;;76.40;51.28;;;7.50;93.20;;;;;;5105147;28;20905;-71
2022/01/25 10:32:02;;;;;;;68.70;48.38;;;7.60;93.50;;;;;;5103440;28;20487;-72
2022/01/25 10:34:31;;;;;;;71.75;49.50;;;7.50;93.30;;;;;;5104293;28;20497;-71
2022/01/25 10:36:59;;;;;;;70.85;48.72;;;7.50;93.40;;;;;;5106738;28;20420;-71
2022/01/25 10:39:31;;;;;;;71.60;48.95;;;7.60;93.50;;;;;;5106294;28;20876;-72
2022/01/25 10:42:12;;;;;;;68.17;47.20;;;7.60;93.10;;;;;;5106117;28;20511;-71
2022/01/25 10:44:58;;;;;;;70.72;48.10;;;7.60;92.90;;;;;;5107453;28;20456;-71
2022/01/25 10:47:44;;;;;;;68.83;45.73;;;7.60;92.90;;;;;;5108747;28;22013;-72
2022/01/25 10:50:16;;;;;;;70.15;48.97;;;7.50;92.90;;;;;;5104989;28;20412;-70
2022/01/25 10:52:42;;;;;;;65.72;45.83;;;7.50;92.90;;;;;;5121595;28;20410;-70
2022/01/25 10:55:08;;;;;;;65.43;44.70;;;7.50;93.20;;;;;;5111405;27;22111;-73
2022/01/25 10:57:35;;;;;;;69.03;46.22;;;7.50;93.30;;;;;;5105018;28;20392;-71
2022/01/25 11:00:07;;;;;;;70.90;47.53;;;7.50;93.80;;;;;;5113782;28;22297;-72
2022/01/25 11:02:33;;;;;;;75.63;49.33;;;7.60;93.60;;;;;;5102622;28;20899;-71
2022/01/25 11:05:07;;;;;;;71.97;48.95;;;7.60;93.80;;;;;;5105563;28;20509;-72
2022/01/25 11:07:39;;;;;;;73.03;47.72;;;7.60;93.80;;;;;;5104758;28;20415;-72
2022/01/25 11:10:05;;;;;;;73.47;49.38;;;7.70;93.80;;;;;;5108404;28;20507;-72
2022/01/25 11:12:37;;;;;;;70.53;47.67;;;7.70;93.20;;;;;;5107692;27;20410;-73
2022/01/25 11:15:06;;;;;;;72.38;48.40;;;7.70;93.10;;;;;;5121465;27;20783;-72
2022/01/25 11:17:33;;;;;;;64.85;42.00;;;7.70;93.40;;;;;;5115094;27;20409;-72
2022/01/25 11:20:01;;;;;;;69.25;44.22;;;7.70;93.10;;;;;;5124217;27;20391;-72
2022/01/25 11:22:28;;;;;;;67.68;44.47;;;7.70;93.40;;;;;;5118998;27;20413;-74
2022/01/25 11:25:04;;;;;;;71.22;45.80;;;7.70;93.50;;;;;;5118558;27;20412;-72
2022/01/25 11:27:31;;;;;;;73.88;48.67;;;7.70;93.60;;;;;;5110810;27;20419;-73
2022/01/25 11:30:18;;;;;;;73.90;48.03;;;7.70;93.50;;;;;;5112871;27;20400;-72
2022/01/25 11:32:47;;;;;;;67.38;44.70;;;7.70;93.60;;;;;;5122477;27;20515;-73
2022/01/25 11:35:16;;;;;;;47.53;31.08;;;7.80;93.60;;;;;;5113225;27;20424;-72
2022/01/25 11:37:45;;;;;;;50.97;31.88;;;7.80;93.50;;;;;;5097048;28;20469;-71
2022/01/25 11:40:29;;;;;;;59.25;37.15;;;7.80;93.50;;;;;;5107933;28;20408;-72
2022/01/25 11:43:00;;;;;;;64.63;39.65;;;7.80;93.40;;;;;;5110305;27;20511;-70
2022/01/25 11:45:34;;;;;;;63.55;40.50;;;7.80;93.60;;;;;;5115561;27;20418;-70
2022/01/25 11:48:00;;;;;;;66.72;43.50;;;7.80;93.40;;;;;;5115064;27;20420;-70
2022/01/25 11:50:28;;;;;;;68.15;43.05;;;7.80;92.80;;;;;;5111368;28;20483;-70
2022/01/25 11:52:56;;;;;;;64.93;40.57;;;7.80;93.10;;;;;;5108719;28;20953;-73
2022/01/25 11:55:26;;;;;;;67.50;45.03;;;7.80;93.50;;;;;;5144804;27;21188;-74
2022/01/25 11:57:56;;;;;;;70.40;46.60;;;7.90;93.60;;;;;;5108824;28;20408;-71
2022/01/25 12:00:47;;;;;;;73.05;49.10;;;7.90;93.00;;;;;;5111240;28;20396;-71
2022/01/25 12:03:40;;;;;;;74.43;50.25;;;7.90;92.60;;;;;;5098506;27;20927;-72
2022/01/25 12:06:07;;;;;;;74.47;47.93;;;7.80;92.40;;;;;;5110304;28;21084;-70
2022/01/25 12:08:40;;;;;;;73.50;48.60;;;7.70;93.00;;;;;;5109528;27;20808;-71
2022/01/25 12:11:31;;;;;;;71.33;46.50;;;7.70;92.80;;;;;;5109950;27;20406;-71
2022/01/25 12:14:13;;;;;;;66.45;43.80;;;7.70;92.70;;;;;;5130938;27;21123;-72
2022/01/25 12:16:48;;;;;;;67.75;42.45;;;7.70;92.90;;;;;;5108826;28;20491;-71
2022/01/25 12:19:37;;;;;;;64.17;42.77;;;7.80;93.00;;;;;;5110760;27;20395;-70
2022/01/25 12:22:25;;;;;;;69.88;46.70;;;7.80;93.00;;;;;;5108475;27;20404;-70
2022/01/25 12:25:07;;;;;;;72.32;48.60;;;7.80;92.90;;;;;;5110335;28;20713;-72
2022/01/25 12:27:44;;;;;;;75.18;48.85;;;7.80;92.80;;;;;;5105941;27;20422;-73
2022/01/25 12:30:12;;;;;;;75.15;48.25;;;7.80;92.70;;;;;;5110460;27;20420;-72
2022/01/25 12:33:03;;;;;;;75.93;49.75;;;7.70;92.70;;;;;;5108685;28;20439;-71
2022/01/25 12:35:37;;;;;;;74.57;48.83;;;7.60;93.30;;;;;;5109514;28;20424;-70
2022/01/25 12:38:24;;;;;;;80.53;52.28;;;7.60;93.50;;;;;;5108108;27;20737;-69
2022/01/25 12:41:06;;;;;;;74.47;48.78;;;7.70;93.60;;;;;;5122286;27;20403;-71
2022/01/25 12:43:38;;;;;;;73.80;48.13;;;7.70;93.30;;;;;;5121902;27;20404;-71
2022/01/25 12:46:24;;;;;;;73.30;48.38;;;7.70;93.10;;;;;;5114473;27;20475;-71
2022/01/25 12:49:03;;;;;;;74.87;49.30;;;7.70;93.20;;;;;;5120521;27;20404;-72
2022/01/25 12:51:32;;;;;;;74.33;49.53;;;7.70;93.10;;;;;;5110937;27;20419;-72
2022/01/25 12:54:01;;;;;;;73.40;48.70;;;7.70;93.30;;;;;;5110119;27;20416;-71
2022/01/25 12:56:42;;;;;;;76.53;50.05;;;7.70;93.00;;;;;;5115480;27;20419;-73
2022/01/25 12:59:15;;;;;;;72.63;47.95;;;7.70;92.90;;;;;;5110184;27;20396;-72
2022/01/25 13:01:42;;;;;;;74.57;47.63;;;7.70;93.10;;;;;;5109193;28;20857;-70
2022/01/25 13:04:10;;;;;;;75.30;47.83;;;7.70;93.10;;;;;;5110643;27;20408;-71
2022/01/25 13:06:39;;;;;;;75.85;48.80;;;7.60;93.40;;;;;;5101113;28;20422;-71
2022/01/25 13:09:14;;;;;;;76.88;47.75;;;7.60;93.40;;;;;;5107422;27;20719;-70
2022/01/25 13:16:55;;;;;;;74.18;45.65;;;7.80;93.30;;;;;;5119057;27;20420;-70
2022/01/25 13:19:25;;;;;;;71.63;42.95;;;7.80;93.50;;;;;;5110592;28;20414;-70
2022/01/25 13:22:01;;;;;;;69.77;43.13;;;7.80;93.70;;;;;;5106440;27;20415;-71
2022/01/25 13:24:30;;;;;;;67.50;42.17;;;7.80;93.10;;;;;;5108607;27;20419;-70
2022/01/25 13:27:04;;;;;;;69.15;42.70;;;7.80;93.70;;;;;;5106881;27;20416;-70
2022/01/25 13:32:20;;;;;;;72.70;44.53;;;7.90;93.50;;;;;;5108032;28;20412;-72
2022/01/25 13:38:02;;;;;;;65.30;41.95;;;7.80;92.90;;;;;;5110310;27;20484;-70
2022/01/25 13:40:44;;;;;;;68.90;42.92;;;7.80;93.20;;;;;;5108512;28;20435;-70
2022/01/25 13:43:32;;;;;;;65.95;41.08;;;7.80;93.20;;;;;;5114411;27;20402;-69
2022/01/25 13:46:04;;;;;;;69.95;42.65;;;7.70;93.30;;;;;;5109627;28;20417;-68
2022/01/25 13:48:30;;;;;;;66.83;41.50;;;7.70;93.40;;;;;;5108323;28;20915;-71
2022/01/25 13:50:59;;;;;;;66.30;40.03;;;7.70;93.40;;;;;;5108939;28;20775;-68
2022/01/25 13:53:26;;;;;;;64.57;40.20;;;7.70;93.40;;;;;;5107102;28;20404;-71
2022/01/25 13:55:57;;;;;;;63.40;39.43;;;7.70;93.50;;;;;;5108764;28;20424;-70
2022/01/25 13:58:31;;;;;;;66.15;40.00;;;7.70;93.60;;;;;;5105711;27;20405;-71
2022/01/25 14:00:58;;;;;;;68.85;39.75;;;7.70;93.60;;;;;;5112362;27;20410;-69
2022/01/25 14:03:26;;;;;;;68.63;40.58;;;7.60;93.80;;;;;;5117090;27;20919;-70
2022/01/25 14:05:52;;;;;;;68.63;40.65;;;7.60;94.10;;;;;;5117261;27;20410;-71
2022/01/25 14:08:34;;;;;;;66.83;39.00;;;7.60;93.90;;;;;;5105763;27;20779;-70
2022/01/25 14:11:03;;;;;;;70.25;39.78;;;7.60;93.80;;;;;;5102994;27;20460;-70
2022/01/25 14:24:35;;;;;;;68.10;40.45;;;7.60;93.80;;;;;;5117246;27;20437;-72
2022/01/25 14:27:30;;;;;;;71.57;40.17;;;7.60;93.80;;;;;;5108652;27;20499;-71
2022/01/25 14:29:56;;;;;;;70.67;40.00;;;7.60;93.70;;;;;;5115468;27;21085;-70
2022/01/25 14:32:30;;;;;;;68.28;37.85;;;7.60;94.00;;;;;;5106904;28;20417;-71
2022/01/25 14:35:08;;;;;;;69.20;38.87;;;7.60;94.10;;;;;;5105412;28;20460;-70
2022/01/25 14:37:44;;;;;;;58.15;33.50;;;7.60;94.30;;;;;;5107146;28;20415;-74
2022/01/25 14:40:12;;;;;;;66.20;35.17;;;7.60;94.20;;;;;;5110786;28;20408;-72
2022/01/25 14:42:43;;;;;;;64.43;36.03;;;7.60;94.50;;;;;;5121726;27;20422;-69
2022/01/25 14:45:14;;;;;;;62.17;35.08;;;7.60;94.50;;;;;;5108621;27;20412;-73
2022/01/25 14:47:43;;;;;;;63.40;35.08;;;7.60;94.20;;;;;;5117220;28;20505;-72
2022/01/25 14:50:18;;;;;;;62.20;35.17;;;7.60;94.40;;;;;;5110109;27;20404;-72
2022/01/25 14:53:12;;;;;;;61.60;35.43;;;7.60;94.50;;;;;;5106085;28;20881;-72